Time;durP1;ratioP1;P1;durP2;ratioP2;P2;SDS_P1;SDS_P2;PMS_P1;PMS_P2;Temp;Humidity;BMP_temperature;BMP_pressure;BME280_temperature;BME280_humidity;BME280_pressure;Samples;Min_cycle;Max_cycle;Signal;HPM_P1;HPM_P2
2023/04/27 00:01:12;;;;;;;7.15;4.30;;;;;;;10.84;67.15;100818.06;5028711;28;20049;-45
2023/04/27 00:03:40;;;;;;;8.55;4.13;;;;;;;10.82;67.15;100812.09;5028606;28;20079;-44
2023/04/27 00:06:08;;;;;;;10.35;3.78;;;;;;;10.81;67.38;100808.50;5019990;28;20056;-46
2023/04/27 00:08:35;;;;;;;9.43;4.10;;;;;;;10.79;67.51;100813.59;5031905;28;20046;-45
2023/04/27 00:11:02;;;;;;;10.15;4.40;;;;;;;10.78;67.80;100819.44;5028665;28;20057;-46
2023/04/27 00:13:29;;;;;;;8.52;3.97;;;;;;;10.77;67.72;100806.78;5027990;28;20080;-44
2023/04/27 00:15:56;;;;;;;12.77;5.32;;;;;;;10.75;67.85;100811.84;5028621;28;20399;-46
2023/04/27 00:18:23;;;;;;;8.10;3.90;;;;;;;10.75;67.97;100803.56;5027398;28;20041;-45
2023/04/27 00:20:49;;;;;;;11.55;4.57;;;;;;;10.73;67.99;100806.66;5028682;28;20056;-45
2023/04/27 00:23:16;;;;;;;10.82;3.65;;;;;;;10.73;68.26;100801.09;5011245;28;20407;-45
2023/04/27 00:25:43;;;;;;;8.82;4.18;;;;;;;10.77;68.26;100798.47;5028540;28;20503;-46
2023/04/27 00:28:10;;;;;;;14.52;4.45;;;;;;;10.81;68.44;100807.69;5028331;28;20518;-44
2023/04/27 00:30:36;;;;;;;8.80;4.63;;;;;;;10.81;68.45;100807.69;5038624;28;20060;-44
2023/04/27 00:33:03;;;;;;;9.65;4.63;;;;;;;10.82;68.45;100798.25;5027994;28;20049;-45
2023/04/27 00:35:31;;;;;;;11.73;4.90;;;;;;;10.83;68.45;100802.59;5028468;28;20049;-45
2023/04/27 00:37:58;;;;;;;8.77;4.57;;;;;;;10.80;68.55;100797.78;5028499;28;20051;-44
2023/04/27 00:40:25;;;;;;;8.13;4.00;;;;;;;10.78;68.35;100800.88;5031787;28;20046;-45
2023/04/27 00:42:52;;;;;;;9.48;3.80;;;;;;;10.77;68.33;100801.22;5032235;28;20056;-47
2023/04/27 00:45:18;;;;;;;5.55;3.47;;;;;;;10.77;68.44;100796.50;5033482;28;20056;-44
2023/04/27 00:47:45;;;;;;;9.10;4.68;;;;;;;10.81;68.59;100802.16;5029465;28;20056;-44
2023/04/27 00:50:13;;;;;;;9.30;4.03;;;;;;;10.81;68.46;100796.59;5031926;28;20484;-45
2023/04/27 00:52:40;;;;;;;10.10;3.50;;;;;;;10.81;68.49;100782.75;5031991;28;20053;-44
2023/04/27 00:55:08;;;;;;;8.88;3.90;;;;;;;10.81;68.80;100774.44;5031253;28;20057;-44
2023/04/27 00:57:35;;;;;;;8.30;3.65;;;;;;;10.80;68.69;100767.31;5038240;28;20120;-44
2023/04/27 01:00:05;;;;;;;10.88;4.55;;;;;;;10.80;68.82;100761.78;5038808;28;20057;-44
2023/04/27 01:02:33;;;;;;;5.65;3.65;;;;;;;10.81;68.54;100760.59;5031852;28;20057;-45
2023/04/27 01:05:01;;;;;;;6.20;3.90;;;;;;;10.82;68.84;100759.47;5030882;28;20111;-43
2023/04/27 01:07:28;;;;;;;7.65;4.95;;;;;;;10.80;68.60;100745.16;5032157;28;20045;-44
2023/04/27 01:09:55;;;;;;;9.60;3.97;;;;;;;10.78;68.83;100748.25;5031298;28;20064;-48
2023/04/27 01:12:21;;;;;;;6.95;3.85;;;;;;;10.78;68.86;100745.50;5032093;28;20060;-46
2023/04/27 01:14:48;;;;;;;16.08;5.72;;;;;;;10.77;69.11;100740.31;5031954;28;20060;-46
2023/04/27 01:17:15;;;;;;;8.20;4.10;;;;;;;10.76;69.17;100739.50;5030891;28;20056;-46
2023/04/27 01:19:43;;;;;;;9.85;5.55;;;;;;;10.74;69.14;100735.47;5031775;28;20045;-50
2023/04/27 01:22:10;;;;;;;9.80;4.13;;;;;;;10.76;69.10;100739.50;5031366;28;20045;-44
2023/04/27 01:24:36;;;;;;;7.40;4.22;;;;;;;10.75;69.13;100742.63;5031623;28;20076;-45
2023/04/27 01:27:03;;;;;;;14.88;5.45;;;;;;;10.75;69.13;100737.09;5031352;28;20053;-45
2023/04/27 01:29:30;;;;;;;9.75;4.45;;;;;;;10.74;69.11;100721.63;5032752;28;20068;-45
2023/04/27 01:31:57;;;;;;;12.38;5.05;;;;;;;10.71;69.33;100720.34;5042504;28;20056;-44
2023/04/27 01:34:24;;;;;;;8.18;4.43;;;;;;;10.71;69.55;100711.22;5031320;28;20076;-46
2023/04/27 01:36:50;;;;;;;6.10;3.88;;;;;;;10.67;69.59;100708.34;5012683;28;20486;-44
2023/04/27 01:39:17;;;;;;;10.57;5.82;;;;;;;10.65;69.70;100710.66;5013779;28;20475;-46
2023/04/27 01:41:43;;;;;;;11.95;5.32;;;;;;;10.62;69.87;100705.00;5031405;28;20398;-46
2023/04/27 01:44:10;;;;;;;10.82;4.75;;;;;;;10.58;69.97;100699.34;5032826;28;20056;-45
2023/04/27 01:46:37;;;;;;;8.25;4.30;;;;;;;10.59;70.16;100702.94;5030027;28;20083;-46
2023/04/27 01:49:04;;;;;;;8.55;4.40;;;;;;;10.60;70.21;100693.47;5013714;28;20049;-45
2023/04/27 01:51:31;;;;;;;8.50;4.72;;;;;;;10.60;70.38;100687.94;5004240;28;20073;-44
2023/04/27 01:53:58;;;;;;;7.57;4.63;;;;;;;10.57;70.57;100683.06;5027385;28;20490;-45
2023/04/27 01:56:25;;;;;;;13.25;5.78;;;;;;;10.55;70.47;100677.91;5030896;28;20172;-45
2023/04/27 01:58:52;;;;;;;8.45;4.43;;;;;;;10.54;70.68;100669.97;5030280;28;20052;-46
2023/04/27 02:01:19;;;;;;;9.57;4.88;;;;;;;10.53;70.86;100673.88;5030701;28;20526;-48
2023/04/27 02:03:46;;;;;;;12.10;4.45;;;;;;;10.54;70.80;100667.19;5030816;28;20128;-48
2023/04/27 02:06:13;;;;;;;10.82;4.22;;;;;;;10.55;70.98;100666.81;5029296;28;20364;-45
2023/04/27 02:08:40;;;;;;;11.80;5.18;;;;;;;10.56;71.14;100667.66;5030659;28;20076;-44
2023/04/27 02:11:06;;;;;;;12.38;4.25;;;;;;;10.54;71.08;100665.19;5030394;28;20053;-44
2023/04/27 02:13:33;;;;;;;10.15;4.38;;;;;;;10.48;71.09;100682.41;5011170;28;20796;-44
2023/04/27 02:16:02;;;;;;;9.63;4.38;;;;;;;10.46;71.40;100688.28;5030361;28;20527;-47
2023/04/27 02:18:29;;;;;;;7.18;4.32;;;;;;;10.47;71.23;100683.53;5029902;28;20092;-45
2023/04/27 02:20:56;;;;;;;11.57;3.55;;;;;;;10.50;71.30;100680.91;5030393;28;20046;-46
2023/04/27 02:23:23;;;;;;;7.65;4.32;;;;;;;10.53;71.36;100673.88;5036832;28;20045;-44
2023/04/27 02:25:50;;;;;;;7.78;4.95;;;;;;;10.52;71.42;100666.69;5009216;28;20136;-45
2023/04/27 02:28:16;;;;;;;12.00;5.43;;;;;;;10.49;71.34;100659.09;5029522;28;20049;-49
2023/04/27 02:30:44;;;;;;;11.80;4.63;;;;;;;10.49;71.42;100651.59;5041716;28;20103;-45
2023/04/27 02:33:10;;;;;;;9.32;4.05;;;;;;;10.46;71.58;100651.50;5029595;28;20410;-44
2023/04/27 02:35:40;;;;;;;10.27;5.22;;;;;;;10.39;71.53;100639.03;5029775;28;20049;-45
2023/04/27 02:38:06;;;;;;;10.50;5.13;;;;;;;10.37;71.87;100643.31;5017255;28;20050;-44
2023/04/27 02:40:33;;;;;;;8.27;5.18;;;;;;;10.40;71.90;100648.16;5030416;28;20060;-44
2023/04/27 02:43:00;;;;;;;14.85;5.47;;;;;;;10.42;72.01;100639.50;5030197;28;20042;-46
2023/04/27 02:45:27;;;;;;;11.18;5.45;;;;;;;10.43;71.68;100644.69;5031047;28;20045;-45
2023/04/27 02:47:54;;;;;;;8.85;5.88;;;;;;;10.40;72.06;100632.34;5028908;28;20081;-44
2023/04/27 02:50:21;;;;;;;11.68;5.97;;;;;;;10.36;72.09;100634.19;5012252;28;20071;-44
2023/04/27 02:52:47;;;;;;;12.02;5.65;;;;;;;10.35;72.35;100629.81;5029636;28;20392;-45
2023/04/27 02:55:15;;;;;;;12.00;4.78;;;;;;;10.34;72.28;100622.69;5027552;28;20037;-45
2023/04/27 02:57:42;;;;;;;15.88;6.95;;;;;;;10.34;72.31;100628.22;5026423;28;20573;-44
2023/04/27 03:00:09;;;;;;;14.90;6.85;;;;;;;10.33;72.50;100621.06;5029581;28;20052;-45
2023/04/27 03:02:36;;;;;;;15.00;6.38;;;;;;;10.34;72.49;100619.91;5065875;22;20479;-44
2023/04/27 03:05:04;;;;;;;13.75;7.38;;;;;;;10.34;72.53;100622.69;5029499;28;20098;-44
2023/04/27 03:07:31;;;;;;;10.73;6.32;;;;;;;10.33;72.68;100621.06;5030295;28;20056;-45
2023/04/27 03:09:58;;;;;;;13.23;7.60;;;;;;;10.31;72.92;100625.31;5029240;28;20555;-44
2023/04/27 03:12:24;;;;;;;13.80;6.40;;;;;;;10.29;73.03;100613.78;5029651;28;20075;-44
2023/04/27 03:14:51;;;;;;;14.68;6.97;;;;;;;10.28;73.27;100607.44;5028556;28;20990;-44
2023/04/27 03:17:19;;;;;;;14.32;6.50;;;;;;;10.25;73.48;100602.59;5029776;28;20060;-44
2023/04/27 03:19:47;;;;;;;20.83;6.85;;;;;;;10.24;73.61;100606.53;5029122;28;20049;-46
2023/04/27 03:22:16;;;;;;;16.77;7.35;;;;;;;10.25;73.73;100607.31;5029415;28;20080;-44
2023/04/27 03:24:43;;;;;;;12.30;7.25;;;;;;;10.25;74.04;100618.41;5029261;28;20149;-44
2023/04/27 03:27:09;;;;;;;17.25;7.63;;;;;;;10.23;74.16;100612.41;5029727;28;20217;-44
2023/04/27 03:29:36;;;;;;;14.35;7.50;;;;;;;10.23;74.16;100599.38;5030944;28;20041;-44
2023/04/27 03:32:04;;;;;;;10.90;6.45;;;;;;;10.23;74.54;100607.69;5030731;28;20148;-45
2023/04/27 03:34:30;;;;;;;11.85;7.30;;;;;;;10.25;74.78;100602.59;5029449;28;20038;-45
2023/04/27 03:36:57;;;;;;;14.23;6.97;;;;;;;10.24;75.10;100606.53;5029527;28;20053;-44
2023/04/27 03:39:24;;;;;;;11.82;5.70;;;;;;;10.24;75.42;100595.47;5029547;28;20506;-45
2023/04/27 03:41:50;;;;;;;11.05;5.75;;;;;;;10.25;75.58;100607.31;5029321;28;20045;-44
2023/04/27 03:44:17;;;;;;;13.55;6.90;;;;;;;10.24;75.81;100589.94;5030657;28;20053;-44
2023/04/27 03:46:44;;;;;;;12.43;6.70;;;;;;;10.23;76.07;100585.56;5029695;28;20068;-46
2023/04/27 03:49:10;;;;;;;13.02;6.65;;;;;;;10.22;76.33;100581.16;5031350;28;20045;-44
2023/04/27 03:51:41;;;;;;;14.27;6.75;;;;;;;10.21;76.75;100574.03;5027908;28;20055;-45
2023/04/27 03:54:08;;;;;;;10.43;7.50;;;;;;;10.20;76.79;100569.63;5028928;28;20045;-48
2023/04/27 03:56:35;;;;;;;10.75;6.18;;;;;;;10.19;77.03;100570.78;5024426;28;20050;-45
2023/04/27 03:59:05;;;;;;;11.30;6.53;;;;;;;10.18;77.21;100563.66;5026473;28;20120;-46
2023/04/27 04:01:32;;;;;;;13.45;6.32;;;;;;;10.19;77.17;100561.69;5028732;28;20388;-44
2023/04/27 04:03:59;;;;;;;11.02;7.07;;;;;;;10.20;77.49;100575.16;5029247;28;20077;-44
2023/04/27 04:06:27;;;;;;;10.45;7.55;;;;;;;10.20;77.71;100563.28;5028772;28;20402;-49
2023/04/27 04:08:54;;;;;;;17.40;8.40;;;;;;;10.20;77.77;100560.53;5027207;28;20037;-44
2023/04/27 04:11:21;;;;;;;16.73;8.32;;;;;;;10.19;77.97;100568.00;5028429;28;20055;-46
2023/04/27 04:13:48;;;;;;;13.63;7.88;;;;;;;10.19;78.12;100568.00;5030118;28;20103;-44
2023/04/27 04:16:14;;;;;;;21.88;10.05;;;;;;;10.18;78.40;100560.06;5035342;28;20398;-44
2023/04/27 04:18:41;;;;;;;17.95;9.57;;;;;;;10.17;78.63;100564.78;5035910;28;20049;-44
2023/04/27 04:21:09;;;;;;;21.35;10.25;;;;;;;10.18;78.55;100568.38;5035626;28;20044;-44
2023/04/27 04:23:36;;;;;;;16.98;9.43;;;;;;;10.14;79.07;100567.47;5021900;28;20127;-44
2023/04/27 04:26:03;;;;;;;20.23;10.00;;;;;;;10.12;79.21;100559.50;5033809;28;20487;-46
2023/04/27 04:28:30;;;;;;;21.52;9.85;;;;;;;10.11;79.51;100560.59;5035141;28;20504;-45
2023/04/27 04:30:58;;;;;;;24.23;11.30;;;;;;;10.12;79.50;100558.66;5047430;28;20053;-45
2023/04/27 04:33:25;;;;;;;22.75;10.55;;;;;;;10.13;80.02;100557.53;5034923;28;20053;-44
2023/04/27 04:35:53;;;;;;;24.05;11.20;;;;;;;10.09;79.90;100549.09;5034642;28;20096;-48
2023/04/27 04:38:20;;;;;;;21.05;11.55;;;;;;;10.07;80.19;100531.22;5035857;28;20076;-44
2023/04/27 04:40:47;;;;;;;19.48;10.82;;;;;;;10.06;80.40;100543.47;5035140;28;20193;-44
2023/04/27 04:43:14;;;;;;;30.08;11.93;;;;;;;10.07;80.70;100539.53;5034889;28;20045;-44
2023/04/27 04:45:41;;;;;;;26.00;12.60;;;;;;;10.06;80.64;100549.78;5036464;28;20100;-47
2023/04/27 04:48:09;;;;;;;20.30;11.10;;;;;;;10.08;80.72;100535.63;5034910;28;20395;-45
2023/04/27 04:50:35;;;;;;;27.45;15.05;;;;;;;10.09;80.83;100538.03;5034930;28;20053;-46
2023/04/27 04:53:02;;;;;;;26.65;14.15;;;;;;;10.10;81.08;100545.19;5035164;28;20132;-44
2023/04/27 04:55:29;;;;;;;24.23;13.23;;;;;;;10.12;81.32;100539.28;5035228;28;20041;-45
2023/04/27 04:57:56;;;;;;;22.98;12.50;;;;;;;10.11;81.36;100544.00;5026616;28;20490;-44
2023/04/27 05:00:22;;;;;;;28.45;13.23;;;;;;;10.11;81.36;100538.47;5034751;28;20148;-44
2023/04/27 05:02:49;;;;;;;34.10;12.98;;;;;;;10.13;81.61;100527.94;5034904;28;20057;-44
2023/04/27 05:05:16;;;;;;;25.25;12.80;;;;;;;10.17;81.47;100531.59;5034540;28;20410;-44
2023/04/27 05:07:42;;;;;;;30.58;14.52;;;;;;;10.20;81.65;100528.13;5034828;28;20136;-44
2023/04/27 05:10:09;;;;;;;33.70;15.15;;;;;;;10.21;81.87;100521.47;5034783;28;20072;-45
2023/04/27 05:12:36;;;;;;;32.00;14.70;;;;;;;10.25;81.81;100530.66;5035311;28;20045;-44
2023/04/27 05:15:03;;;;;;;32.72;16.05;;;;;;;10.27;82.02;100528.34;5025761;28;20045;-45
2023/04/27 05:17:30;;;;;;;23.77;13.13;;;;;;;10.29;81.95;100530.78;5034406;28;20441;-46
2023/04/27 05:19:57;;;;;;;29.20;12.73;;;;;;;10.31;82.15;100529.28;5034257;28;20041;-45
2023/04/27 05:22:24;;;;;;;27.73;14.90;;;;;;;10.29;82.22;100531.59;5034986;28;20139;-45
2023/04/27 05:24:57;;;;;;;27.35;14.32;;;;;;;10.28;82.45;100527.22;5033756;28;20049;-44
2023/04/27 05:27:25;;;;;;;30.50;13.90;;;;;;;10.28;82.61;100529.97;5030907;28;20045;-50
2023/04/27 05:29:53;;;;;;;26.60;13.20;;;;;;;10.31;82.63;100529.28;5035887;28;20056;-44
2023/04/27 05:32:20;;;;;;;24.65;12.30;;;;;;;10.29;82.79;100531.59;5038348;28;20550;-47
2023/04/27 05:34:46;;;;;;;28.70;14.30;;;;;;;10.29;82.67;100531.59;5031277;28;20045;-44
2023/04/27 05:37:17;;;;;;;29.90;12.18;;;;;;;10.30;82.70;100527.66;5029829;28;20155;-44
2023/04/27 05:39:44;;;;;;;22.20;11.45;;;;;;;10.30;82.67;100515.78;5030026;28;20145;-44
2023/04/27 05:42:11;;;;;;;27.15;10.73;;;;;;;10.29;83.03;100503.94;5031357;28;20045;-51
2023/04/27 05:44:37;;;;;;;24.75;12.15;;;;;;;10.29;82.93;100503.94;5031833;28;20048;-44
2023/04/27 05:47:04;;;;;;;27.55;11.45;;;;;;;10.29;83.13;100500.34;5031499;28;20064;-47
2023/04/27 05:49:31;;;;;;;28.83;11.95;;;;;;;10.27;83.22;100506.22;5030852;28;20069;-46
2023/04/27 05:51:58;;;;;;;25.75;11.45;;;;;;;10.26;83.24;100504.63;5031115;28;20526;-45
2023/04/27 05:54:26;;;;;;;22.88;13.13;;;;;;;10.28;83.54;100507.03;5031046;28;20054;-44
2023/04/27 05:56:53;;;;;;;28.75;14.07;;;;;;;10.29;83.52;100515.00;5029413;28;20064;-44
2023/04/27 05:59:20;;;;;;;29.80;13.30;;;;;;;10.27;83.60;100505.44;5030882;28;20045;-47
2023/04/27 06:01:47;;;;;;;27.90;13.80;;;;;;;10.26;83.55;100504.63;5030782;28;20132;-45
2023/04/27 06:04:14;;;;;;;35.17;16.67;;;;;;;10.26;83.66;100504.63;5031180;28;20087;-44
2023/04/27 06:06:41;;;;;;;26.77;13.40;;;;;;;10.29;83.70;100503.13;5030532;28;20049;-45
2023/04/27 06:09:07;;;;;;;27.77;12.65;;;;;;;10.28;83.82;100499.53;5031016;28;20056;-48
2023/04/27 06:11:34;;;;;;;28.35;13.13;;;;;;;10.27;83.94;100506.22;5030527;28;20434;-44
2023/04/27 06:14:01;;;;;;;33.75;13.27;;;;;;;10.27;84.01;100500.69;5029220;28;20055;-45
2023/04/27 06:16:27;;;;;;;23.48;11.77;;;;;;;10.26;84.14;100501.84;5030349;28;20120;-47
2023/04/27 06:18:54;;;;;;;40.70;12.45;;;;;;;10.27;84.11;100499.91;5030849;28;20041;-44
2023/04/27 06:21:25;;;;;;;23.40;9.93;;;;;;;10.27;84.30;100494.38;5030778;28;20103;-47
2023/04/27 06:23:51;;;;;;;30.35;13.88;;;;;;;10.27;84.22;100483.31;5030494;28;20041;-44
2023/04/27 06:26:18;;;;;;;31.40;13.93;;;;;;;10.24;84.25;100490.34;5030226;28;20029;-44
2023/04/27 06:28:46;;;;;;;34.40;15.82;;;;;;;10.22;84.26;100476.03;5030646;28;20725;-52
2023/04/27 06:31:12;;;;;;;39.67;13.10;;;;;;;10.23;84.12;100474.06;5041910;28;20045;-44
2023/04/27 06:33:40;;;;;;;42.92;17.05;;;;;;;10.20;84.27;100478.34;5030264;28;20045;-45
2023/04/27 06:36:07;;;;;;;28.23;12.05;;;;;;;10.17;84.26;100470.75;5030489;28;20099;-45
2023/04/27 06:38:33;;;;;;;22.42;11.65;;;;;;;10.15;84.32;100470.28;5030970;28;20046;-44
2023/04/27 06:41:00;;;;;;;21.55;10.00;;;;;;;10.16;84.25;100460.03;5030193;28;20585;-48
2023/04/27 06:43:26;;;;;;;26.70;10.13;;;;;;;10.18;84.06;100464.06;5029143;28;20052;-48
2023/04/27 06:45:53;;;;;;;28.13;9.93;;;;;;;10.18;84.19;100461.28;5030746;28;20038;-44
2023/04/27 06:48:20;;;;;;;21.58;10.20;;;;;;;10.16;84.39;100460.84;5030884;28;20045;-48
2023/04/27 06:50:47;;;;;;;20.05;9.35;;;;;;;10.15;84.54;100463.94;5030167;28;20052;-44
2023/04/27 06:53:15;;;;;;;26.75;9.88;;;;;;;10.14;84.57;100467.88;5029910;28;20045;-45
2023/04/27 06:55:42;;;;;;;28.02;10.70;;;;;;;10.16;84.61;100471.91;5029944;28;20410;-47
2023/04/27 06:58:12;;;;;;;25.67;9.38;;;;;;;10.14;84.80;100474.19;5030044;28;20136;-47
2023/04/27 07:00:39;;;;;;;19.05;7.28;;;;;;;10.12;84.87;100461.84;5029545;28;20037;-44
2023/04/27 07:03:05;;;;;;;13.88;7.07;;;;;;;10.11;84.99;100460.25;5029695;28;20045;-45
2023/04/27 07:05:33;;;;;;;18.27;8.52;;;;;;;10.10;84.84;100451.13;5029784;28;20099;-44
2023/04/27 07:07:59;;;;;;;23.48;8.13;;;;;;;10.13;84.84;100456.00;5029787;28;20116;-44
2023/04/27 07:10:32;;;;;;;14.73;6.68;;;;;;;10.13;84.80;100464.31;5029837;28;20091;-44
2023/04/27 07:12:59;;;;;;;18.77;9.00;;;;;;;10.13;84.77;100478.13;5029921;28;20710;-44
2023/04/27 07:15:25;;;;;;;17.42;6.68;;;;;;;10.13;84.75;100464.31;5029200;28;20057;-45
2023/04/27 07:17:55;;;;;;;18.70;8.18;;;;;;;10.12;84.73;100467.38;5029456;28;20060;-44
2023/04/27 07:20:22;;;;;;;18.25;8.13;;;;;;;10.11;84.63;100463.78;5029523;28;20041;-45
2023/04/27 07:22:49;;;;;;;19.08;8.63;;;;;;;10.12;84.73;100470.97;5029658;28;20419;-45
2023/04/27 07:25:16;;;;;;;23.55;9.38;;;;;;;10.15;84.59;100475.00;5029452;28;20046;-44
2023/04/27 07:27:44;;;;;;;15.35;7.55;;;;;;;10.14;84.55;100470.66;5029447;28;20540;-44
2023/04/27 07:30:12;;;;;;;17.65;7.72;;;;;;;10.17;84.65;100469.94;5047658;28;20391;-44
2023/04/27 07:32:40;;;;;;;21.55;8.30;;;;;;;10.18;84.51;100466.81;5034113;28;20418;-44
2023/04/27 07:35:10;;;;;;;19.27;8.40;;;;;;;10.20;84.55;100472.81;5029468;28;20041;-44
2023/04/27 07:37:37;;;;;;;18.17;9.10;;;;;;;10.23;84.41;100469.34;5028726;28;20049;-49
2023/04/27 07:40:10;;;;;;;18.85;9.35;;;;;;;10.26;84.38;100476.97;5029185;28;20057;-45
2023/04/27 07:42:38;;;;;;;22.30;9.18;;;;;;;10.29;84.56;100470.72;5027777;28;20049;-45
2023/04/27 07:45:06;;;;;;;26.08;8.93;;;;;;;10.32;84.26;100475.56;5031065;28;20266;-46
2023/04/27 07:47:33;;;;;;;18.75;9.63;;;;;;;10.32;84.34;100470.03;5029308;28;20499;-44
2023/04/27 07:49:59;;;;;;;28.05;10.10;;;;;;;10.32;84.15;100470.03;5028177;28;20128;-44
2023/04/27 07:52:26;;;;;;;24.55;9.18;;;;;;;10.32;84.31;100470.03;5028560;28;20454;-44
2023/04/27 07:54:53;;;;;;;22.63;9.98;;;;;;;10.35;84.41;100469.31;5019771;28;20041;-44
2023/04/27 07:57:19;;;;;;;24.90;9.05;;;;;;;10.40;84.38;100462.75;5037853;28;20117;-44
2023/04/27 07:59:46;;;;;;;18.45;9.38;;;;;;;10.43;84.30;100464.81;5014356;28;20403;-45
2023/04/27 08:02:13;;;;;;;31.20;10.75;;;;;;;10.44;84.16;100462.81;5029034;28;20057;-47
2023/04/27 08:04:46;;;;;;;22.88;10.10;;;;;;;10.43;84.26;100452.94;5028805;28;20049;-44
2023/04/27 08:07:15;;;;;;;30.50;10.65;;;;;;;10.45;84.24;100453.38;5028566;28;20124;-44
2023/04/27 08:09:42;;;;;;;22.33;9.48;;;;;;;10.49;84.37;100449.53;5028598;28;20054;-51
2023/04/27 08:12:08;;;;;;;28.15;9.77;;;;;;;10.55;84.33;100447.34;5028286;28;20049;-44
2023/04/27 08:14:36;;;;;;;24.58;9.55;;;;;;;10.60;84.23;100447.88;5028126;28;20060;-44
2023/04/27 08:17:03;;;;;;;16.63;8.95;;;;;;;10.62;84.06;100453.06;5028205;28;20060;-44
2023/04/27 08:19:30;;;;;;;21.63;10.23;;;;;;;10.60;84.15;100449.84;5028975;28;20052;-44
2023/04/27 08:21:56;;;;;;;28.27;10.18;;;;;;;10.60;84.12;100450.66;5028370;28;20053;-44
2023/04/27 08:24:23;;;;;;;24.05;11.13;;;;;;;10.59;84.00;100451.03;5028160;28;20057;-44
2023/04/27 08:26:50;;;;;;;20.88;8.85;;;;;;;10.56;83.90;100441.47;5028320;28;20402;-44
2023/04/27 08:29:17;;;;;;;24.83;9.75;;;;;;;10.59;83.95;100437.19;5028691;28;20392;-44
2023/04/27 08:31:58;;;;;;;24.55;10.35;;;;;;;10.63;83.89;100430.59;5022597;28;20107;-45
2023/04/27 08:34:25;;;;;;;15.18;9.57;;;;;;;10.61;84.00;100432.91;5028451;28;20060;-44
2023/04/27 08:36:55;;;;;;;25.75;11.48;;;;;;;10.59;83.96;100426.13;5028834;28;20046;-44
2023/04/27 08:39:23;;;;;;;19.58;9.80;;;;;;;10.64;83.91;100426.66;5028485;28;20158;-45
2023/04/27 08:41:50;;;;;;;23.83;11.07;;;;;;;10.70;83.85;100418.88;5028294;28;20045;-44
2023/04/27 08:44:17;;;;;;;31.70;11.27;;;;;;;10.77;83.74;100419.09;5030471;28;20099;-44
2023/04/27 08:46:43;;;;;;;22.85;10.43;;;;;;;10.85;83.63;100402.31;5028002;28;20057;-45
2023/04/27 08:49:10;;;;;;;26.27;11.85;;;;;;;10.93;83.23;100397.78;5028343;28;20056;-44
2023/04/27 08:51:40;;;;;;;25.83;9.00;;;;;;;11.00;83.07;100403.50;5028511;28;20049;-44
2023/04/27 08:54:07;;;;;;;21.73;11.00;;;;;;;10.98;82.91;100397.50;5028371;28;20136;-50
2023/04/27 08:56:34;;;;;;;22.63;9.90;;;;;;;10.94;82.90;100402.13;5028372;28;20486;-50
2023/04/27 08:59:03;;;;;;;24.23;11.85;;;;;;;10.90;83.13;100398.47;5028183;28;20045;-44
2023/04/27 09:01:31;;;;;;;20.30;9.25;;;;;;;10.89;83.24;100392.13;5030989;28;20068;-44
2023/04/27 09:04:00;;;;;;;26.35;12.38;;;;;;;10.88;83.30;100381.44;5031520;28;20169;-48
2023/04/27 09:06:34;;;;;;;22.10;9.95;;;;;;;10.89;83.35;100381.06;5031863;28;20048;-44
2023/04/27 09:09:02;;;;;;;25.02;10.10;;;;;;;10.96;83.26;100392.31;5018887;28;20053;-44
2023/04/27 09:11:37;;;;;;;31.10;12.05;;;;;;;11.00;83.32;100395.19;5045129;28;20047;-44
2023/04/27 09:14:18;;;;;;;24.90;11.38;;;;;;;11.04;83.11;100387.75;5032038;28;20509;-49
2023/04/27 09:16:45;;;;;;;20.70;9.93;;;;;;;11.10;83.20;100394.66;5031541;28;20081;-44
2023/04/27 09:19:23;;;;;;;23.90;9.15;;;;;;;11.16;83.14;100376.59;5031367;28;20041;-45
2023/04/27 09:21:50;;;;;;;26.20;10.63;;;;;;;11.19;82.97;100386.97;5031269;28;20046;-45
2023/04/27 09:24:17;;;;;;;29.10;10.63;;;;;;;11.15;83.15;100374.97;5031572;28;20045;-44
2023/04/27 09:26:48;;;;;;;21.75;10.35;;;;;;;11.08;82.98;100380.34;5038978;28;20471;-46
2023/04/27 09:29:16;;;;;;;23.85;9.63;;;;;;;11.05;83.23;100385.78;5036107;28;20059;-48
2023/04/27 09:31:43;;;;;;;29.00;11.40;;;;;;;10.99;83.37;100386.06;5042199;28;20076;-45
2023/04/27 09:34:09;;;;;;;25.98;10.80;;;;;;;10.95;83.38;100395.44;5030920;28;20095;-45
2023/04/27 09:36:37;;;;;;;21.00;10.13;;;;;;;10.86;83.64;100390.06;5031623;28;20037;-44
2023/04/27 09:39:04;;;;;;;22.92;9.50;;;;;;;10.80;83.84;100385.94;5031533;28;20057;-49
2023/04/27 09:41:34;;;;;;;21.25;10.90;;;;;;;10.77;83.78;100388.63;5031710;28;20060;-45
2023/04/27 09:44:02;;;;;;;25.40;11.60;;;;;;;10.72;84.04;100381.38;5033242;28;20041;-45
2023/04/27 09:46:32;;;;;;;28.75;11.57;;;;;;;10.66;84.20;100366.19;5025977;28;20053;-45
2023/04/27 09:49:00;;;;;;;35.08;11.55;;;;;;;10.61;84.52;100365.66;5015227;28;22024;-54
2023/04/27 09:51:26;;;;;;;30.55;11.38;;;;;;;10.56;84.70;100363.16;5008673;28;20738;-45
2023/04/27 09:53:58;;;;;;;30.65;14.02;;;;;;;10.53;84.83;100374.94;5008118;28;20047;-48
2023/04/27 09:56:36;;;;;;;37.45;14.60;;;;;;;10.56;85.10;100363.97;5005123;28;20049;-49
2023/04/27 09:59:22;;;;;;;26.13;13.05;;;;;;;10.57;85.06;100356.44;5005557;28;20056;-50
2023/04/27 10:01:55;;;;;;;28.02;12.10;;;;;;;10.56;85.07;100354.84;5008239;28;20058;-48
2023/04/27 10:04:55;;;;;;;26.05;11.98;;;;;;;10.58;85.47;100356.09;5012295;28;20131;-47
2023/04/27 10:07:25;;;;;;;28.05;12.57;;;;;;;10.57;85.31;100351.72;5011183;28;20514;-44
2023/04/27 10:09:52;;;;;;;21.55;10.73;;;;;;;10.60;85.63;100352.97;5011735;28;20053;-44
2023/04/27 10:12:26;;;;;;;20.35;10.45;;;;;;;10.64;85.52;100348.34;5012398;28;20057;-48
2023/04/27 10:14:55;;;;;;;19.88;10.27;;;;;;;10.73;85.63;100344.22;5013293;28;20092;-49
2023/04/27 10:17:34;;;;;;;20.33;11.30;;;;;;;10.84;85.59;100336.19;5010953;28;20156;-48
2023/04/27 10:20:06;;;;;;;26.75;11.10;;;;;;;10.90;85.43;100345.88;5011749;28;20053;-48
2023/04/27 10:22:38;;;;;;;23.85;10.35;;;;;;;11.00;85.17;100345.31;5003165;28;20068;-53
2023/04/27 10:25:24;;;;;;;23.83;11.07;;;;;;;11.10;85.21;100338.41;5010568;28;20049;-46
2023/04/27 10:27:54;;;;;;;24.80;10.60;;;;;;;11.15;84.98;100330.66;5012645;28;20403;-47
2023/04/27 10:30:23;;;;;;;17.83;8.75;;;;;;;11.14;84.83;100340.13;5011422;28;20053;-45
2023/04/27 10:32:54;;;;;;;20.92;9.88;;;;;;;11.12;84.88;100339.66;5012637;28;20505;-44
2023/04/27 10:35:31;;;;;;;21.15;9.88;;;;;;;11.04;84.76;100335.13;5011156;28;20057;-45
2023/04/27 10:38:18;;;;;;;20.52;9.98;;;;;;;11.01;85.05;100338.63;5013158;28;20056;-45
2023/04/27 10:40:54;;;;;;;26.67;10.82;;;;;;;11.00;84.84;100339.78;5011884;28;20111;-49
2023/04/27 10:43:25;;;;;;;21.08;10.38;;;;;;;10.96;84.75;100330.59;5010880;28;20140;-46
2023/04/27 10:45:53;;;;;;;21.30;11.50;;;;;;;10.96;84.98;100338.91;5011219;28;20991;-47
2023/04/27 10:48:20;;;;;;;28.85;13.65;;;;;;;10.94;84.81;100333.69;5011849;28;20049;-48
2023/04/27 10:50:50;;;;;;;22.15;9.93;;;;;;;10.89;85.01;100333.16;5008738;28;20045;-44
2023/04/27 10:53:17;;;;;;;28.75;11.57;;;;;;;10.86;85.11;100331.09;5010411;28;20550;-47
2023/04/27 10:55:44;;;;;;;24.15;11.27;;;;;;;10.89;85.13;100322.91;5012180;28;20562;-44
2023/04/27 10:58:11;;;;;;;23.20;11.85;;;;;;;10.90;85.39;100321.75;5011357;28;20060;-48
2023/04/27 11:00:43;;;;;;;20.23;11.45;;;;;;;10.88;85.35;100315.72;5011628;28;20056;-44
2023/04/27 11:03:19;;;;;;;23.80;11.00;;;;;;;10.86;85.49;100315.28;5011572;28;20093;-48
2023/04/27 11:05:48;;;;;;;28.35;11.15;;;;;;;10.81;85.46;100317.53;5011701;28;20065;-48
2023/04/27 11:08:17;;;;;;;40.47;11.60;;;;;;;10.75;85.62;100316.22;5010945;28;20049;-44
2023/04/27 11:10:49;;;;;;;21.70;11.77;;;;;;;10.70;85.96;100320.03;5008078;28;20467;-44
2023/04/27 11:13:19;;;;;;;21.10;10.50;;;;;;;10.67;86.08;100308.88;5011412;28;20095;-45
2023/04/27 11:15:56;;;;;;;24.08;11.35;;;;;;;10.70;86.29;100308.13;5011203;28;20128;-44
2023/04/27 11:18:36;;;;;;;20.92;11.68;;;;;;;10.71;86.17;100304.22;5009674;28;20168;-50